createdAt,value
2023-03-24T00:00:23.973Z,9.53
2023-03-24T00:03:11.036Z,7.43
2023-03-24T00:05:38.410Z,6.03
2023-03-24T00:08:05.483Z,7.60
2023-03-24T00:10:34.870Z,9.37
2023-03-24T00:13:02.486Z,7.27
2023-03-24T00:15:29.821Z,12.03
2023-03-24T00:17:58.203Z,9.60
2023-03-24T00:20:26.397Z,9.70
2023-03-24T00:22:58.621Z,9.13
2023-03-24T00:25:29.333Z,8.43
2023-03-24T00:27:57.578Z,9.50
2023-03-24T00:30:26.045Z,8.40
2023-03-24T00:32:53.967Z,8.07
2023-03-24T00:35:21.922Z,7.90
2023-03-24T00:37:52.011Z,6.63
2023-03-24T00:40:21.096Z,11.57
2023-03-24T00:42:49.979Z,6.53
2023-03-24T00:45:20.302Z,8.30
2023-03-24T00:47:50.274Z,7.37
2023-03-24T00:50:20.598Z,7.57
2023-03-24T00:52:49.159Z,10.13
2023-03-24T00:55:17.247Z,12.87
2023-03-24T00:57:50.762Z,10.63
2023-03-24T01:00:21.125Z,9.67
2023-03-24T01:02:53.847Z,9.13
2023-03-24T01:05:23.335Z,7.50
2023-03-24T01:07:53.512Z,8.67
2023-03-24T01:10:26.609Z,7.77
2023-03-24T01:12:58.938Z,8.87
2023-03-24T01:15:33.321Z,8.70
2023-03-24T01:18:02.283Z,12.17
2023-03-24T01:20:33.255Z,11.37
2023-03-24T01:23:01.944Z,9.57
2023-03-24T01:25:30.526Z,14.10
2023-03-24T01:27:57.755Z,10.83
2023-03-24T01:30:27.443Z,14.73
2023-03-24T01:32:55.048Z,10.63
2023-03-24T01:35:23.456Z,11.43
2023-03-24T01:37:50.498Z,15.50
2023-03-24T01:40:21.281Z,13.50
2023-03-24T01:42:48.446Z,14.77
2023-03-24T01:45:40.420Z,13.50
2023-03-24T01:48:12.284Z,13.97
2023-03-24T01:50:42.168Z,13.90
2023-03-24T01:53:09.551Z,14.13
2023-03-24T01:55:37.620Z,12.60
2023-03-24T01:58:07.144Z,10.97
2023-03-24T02:00:47.394Z,16.43
2023-03-24T02:03:40.150Z,16.73
2023-03-24T02:06:08.654Z,14.83
2023-03-24T02:08:53.597Z,19.47
2023-03-24T02:11:23.102Z,15.97
2023-03-24T02:13:54.498Z,16.50
2023-03-24T02:16:34.896Z,17.37
2023-03-24T02:19:25.198Z,22.80
2023-03-24T02:22:26.360Z,25.93
2023-03-24T02:25:15.323Z,21.20
2023-03-24T02:27:58.266Z,23.50
2023-03-24T02:30:40.527Z,24.50
2023-03-24T02:33:38.321Z,25.43
2023-03-24T02:36:24.211Z,31.93
2023-03-24T02:39:17.639Z,32.57
2023-03-24T02:41:56.308Z,39.17
2023-03-24T02:44:31.992Z,45.07
2023-03-24T02:47:14.888Z,34.20
2023-03-24T02:49:47.451Z,32.83
2023-03-24T02:52:32.561Z,40.93
2023-03-24T02:55:12.432Z,38.03
2023-03-24T02:57:54.798Z,35.53
2023-03-24T03:01:06.061Z,33.43
2023-03-24T03:03:55.644Z,33.80
2023-03-24T03:06:32.560Z,37.37
2023-03-24T03:09:07.726Z,35.27
2023-03-24T03:11:34.534Z,35.27
2023-03-24T03:14:06.184Z,33.07
2023-03-24T03:17:01.522Z,40.47
2023-03-24T03:19:43.686Z,33.50
2023-03-24T03:22:16.657Z,35.57
2023-03-24T03:24:50.466Z,40.53
2023-03-24T03:27:22.051Z,41.97
2023-03-24T03:29:54.397Z,34.97
2023-03-24T03:32:28.460Z,35.00
2023-03-24T03:35:00.331Z,36.03
2023-03-24T03:37:50.621Z,38.37
2023-03-24T03:40:22.242Z,32.83
2023-03-24T03:42:54.954Z,42.30
2023-03-24T03:45:22.134Z,39.30
2023-03-24T03:47:49.975Z,37.23
2023-03-24T03:50:17.496Z,31.37
2023-03-24T03:52:45.076Z,36.10
2023-03-24T03:55:13.103Z,35.47
2023-03-24T03:57:41.634Z,35.40
2023-03-24T04:00:31.725Z,29.43
2023-03-24T04:03:42.545Z,33.80
2023-03-24T04:06:27.077Z,38.43
2023-03-24T04:09:07.282Z,31.03
2023-03-24T04:12:02.445Z,29.73
2023-03-24T04:15:27.855Z,29.30
2023-03-24T04:18:10.312Z,35.33
2023-03-24T04:21:10.080Z,30.77
2023-03-24T04:23:50.458Z,29.43
2023-03-24T04:26:42.461Z,26.70
2023-03-24T04:29:17.893Z,30.07
2023-03-24T04:31:59.075Z,26.83
2023-03-24T04:34:30.826Z,26.20
2023-03-24T04:37:12.523Z,30.20
2023-03-24T04:40:06.061Z,29.43
2023-03-24T04:42:36.769Z,30.70
2023-03-24T04:45:06.961Z,27.23
2023-03-24T04:47:43.953Z,28.87
2023-03-24T04:50:31.456Z,29.23
2023-03-24T04:53:00.783Z,26.47
2023-03-24T04:55:46.261Z,28.00
2023-03-24T04:58:13.160Z,26.27
2023-03-24T05:00:44.279Z,30.03
2023-03-24T05:03:14.493Z,25.70
2023-03-24T05:05:48.249Z,25.00
2023-03-24T05:08:17.554Z,27.23
2023-03-24T05:10:45.981Z,36.70
2023-03-24T05:13:13.171Z,28.47
2023-03-24T05:15:46.880Z,29.03
2023-03-24T05:18:27.206Z,30.43
2023-03-24T05:20:57.130Z,29.63
2023-03-24T05:23:24.540Z,29.37
2023-03-24T05:25:51.594Z,25.73
2023-03-24T05:28:21.372Z,34.30
2023-03-24T05:30:48.786Z,27.17
2023-03-24T05:33:35.954Z,26.13
2023-03-24T05:36:04.587Z,22.30
2023-03-24T05:38:32.867Z,22.27
2023-03-24T05:41:01.227Z,22.30
2023-03-24T05:43:33.942Z,27.87
2023-03-24T05:46:10.446Z,22.67
2023-03-24T05:48:37.269Z,24.40
2023-03-24T05:51:12.788Z,21.13
2023-03-24T05:53:39.894Z,20.97
2023-03-24T05:56:13.447Z,22.10
2023-03-24T05:59:06.737Z,20.10
2023-03-24T06:02:04.721Z,19.03
2023-03-24T06:04:51.725Z,19.40
2023-03-24T06:07:22.188Z,20.10
2023-03-24T06:09:51.093Z,20.67
2023-03-24T06:12:18.808Z,24.03
2023-03-24T06:14:52.861Z,21.07
2023-03-24T06:17:21.410Z,17.73
2023-03-24T06:19:51.629Z,18.60
2023-03-24T06:22:48.642Z,18.40
2023-03-24T06:25:21.526Z,19.97
2023-03-24T06:28:04.069Z,17.10
2023-03-24T06:30:32.179Z,20.27
2023-03-24T06:32:59.341Z,17.97
2023-03-24T06:35:26.598Z,17.70
2023-03-24T06:38:01.233Z,16.93
2023-03-24T06:40:28.447Z,19.23
2023-03-24T06:42:58.685Z,17.47
2023-03-24T06:45:26.175Z,16.57
2023-03-24T06:47:57.307Z,16.43
2023-03-24T06:50:32.995Z,12.50
2023-03-24T06:53:02.300Z,14.53
2023-03-24T06:55:31.054Z,14.37
2023-03-24T06:57:58.216Z,13.53
2023-03-24T07:00:25.783Z,14.77
2023-03-24T07:03:14.120Z,13.30
2023-03-24T07:05:45.656Z,12.47
2023-03-24T07:10:48.616Z,13.93
2023-03-24T07:13:16.121Z,13.17
2023-03-24T07:15:42.994Z,12.20
2023-03-24T07:18:11.512Z,14.97
2023-03-24T07:20:42.264Z,15.63
2023-03-24T07:23:18.346Z,14.10
2023-03-24T07:26:08.009Z,18.50
2023-03-24T07:28:55.954Z,12.97
2023-03-24T07:31:38.242Z,15.27
2023-03-24T07:34:09.152Z,16.03
2023-03-24T07:36:38.287Z,13.83
2023-03-24T07:39:09.422Z,13.27
2023-03-24T07:41:37.179Z,14.37
2023-03-24T07:44:14.870Z,19.67
2023-03-24T07:46:49.079Z,17.90
2023-03-24T07:49:19.824Z,18.17
2023-03-24T07:52:08.505Z,20.73
2023-03-24T07:54:38.752Z,18.70
2023-03-24T07:57:06.145Z,18.47
2023-03-24T07:59:34.433Z,21.00
2023-03-24T08:02:05.709Z,18.67
2023-03-24T08:04:43.718Z,19.60
2023-03-24T08:07:37.187Z,20.77
2023-03-24T08:10:04.799Z,22.97
2023-03-24T08:12:31.885Z,16.60
2023-03-24T08:14:59.045Z,20.10
2023-03-24T08:17:25.875Z,20.83
2023-03-24T08:20:00.095Z,23.00
2023-03-24T08:22:28.138Z,19.73
2023-03-24T08:24:55.109Z,18.40
2023-03-24T08:27:21.848Z,18.07
2023-03-24T08:29:48.880Z,19.77
2023-03-24T08:32:15.699Z,19.10
2023-03-24T08:34:42.689Z,18.40
2023-03-24T08:37:09.523Z,16.30
2023-03-24T08:39:36.504Z,15.00
2023-03-24T08:42:03.771Z,14.50
2023-03-24T08:44:32.872Z,15.10
2023-03-24T08:47:03.416Z,16.43
2023-03-24T08:49:30.616Z,15.60
2023-03-24T08:51:57.372Z,15.93
2023-03-24T08:54:24.738Z,16.37
2023-03-24T08:56:51.860Z,15.65
2023-03-24T08:59:18.986Z,12.82
2023-03-24T09:01:45.745Z,13.90
2023-03-24T09:04:13.047Z,13.68
2023-03-24T09:06:39.878Z,14.25
2023-03-24T09:09:08.198Z,13.20
2023-03-24T09:11:36.306Z,16.08
2023-03-24T09:14:05.197Z,16.13
2023-03-24T09:16:32.114Z,13.77
2023-03-24T09:18:59.262Z,12.95
2023-03-24T09:21:26.206Z,11.77
2023-03-24T09:23:53.219Z,10.32
2023-03-24T09:26:20.059Z,13.68
2023-03-24T09:28:47.072Z,10.82
2023-03-24T09:31:13.859Z,11.30
2023-03-24T09:33:41.148Z,11.48
2023-03-24T09:36:08.407Z,10.38
2023-03-24T09:38:35.613Z,8.32
2023-03-24T09:41:03.334Z,11.75
2023-03-24T09:43:40.886Z,13.75
2023-03-24T09:46:16.081Z,9.15
2023-03-24T09:48:53.135Z,9.35
2023-03-24T09:51:25.918Z,9.35
2023-03-24T09:53:56.922Z,6.60
2023-03-24T09:56:25.860Z,7.80
2023-03-24T09:59:17.020Z,9.00
2023-03-24T10:01:45.268Z,6.30
2023-03-24T10:04:15.899Z,9.77
2023-03-24T10:06:43.642Z,5.03
2023-03-24T10:09:31.021Z,7.53
2023-03-24T10:12:06.515Z,6.83
2023-03-24T10:15:00.967Z,6.97
2023-03-24T10:17:39.956Z,5.43
2023-03-24T10:20:39.131Z,5.40
2023-03-24T10:23:22.783Z,7.53
2023-03-24T10:26:07.998Z,5.90
2023-03-24T10:28:50.115Z,6.13
2023-03-24T10:31:20.310Z,4.20
2023-03-24T10:33:47.453Z,6.32
2023-03-24T10:36:18.376Z,3.28
2023-03-24T10:38:45.910Z,6.97
2023-03-24T10:41:19.224Z,4.63
2023-03-24T10:43:48.367Z,5.15
2023-03-24T10:46:19.231Z,2.95
2023-03-24T10:48:48.535Z,6.00
2023-03-24T10:51:23.385Z,5.63
2023-03-24T10:53:52.189Z,5.30
2023-03-24T10:56:42.871Z,4.63
2023-03-24T10:59:38.768Z,5.80
2023-03-24T11:02:27.043Z,3.50
2023-03-24T11:05:03.630Z,5.03
2023-03-24T11:07:39.294Z,6.57
2023-03-24T11:10:15.309Z,3.55
2023-03-24T11:12:54.317Z,7.65
2023-03-24T11:15:29.232Z,6.70
2023-03-24T11:17:58.231Z,7.20
2023-03-24T11:20:35.457Z,5.93
2023-03-24T11:23:21.075Z,8.73
2023-03-24T11:26:02.325Z,8.65
2023-03-24T11:28:35.403Z,19.13
2023-03-24T11:31:08.069Z,7.25
2023-03-24T11:33:43.340Z,5.20
2023-03-24T11:36:30.377Z,5.00
2023-03-24T11:39:12.058Z,6.03
2023-03-24T11:41:42.935Z,4.25
2023-03-24T11:44:24.611Z,4.95
2023-03-24T11:46:57.230Z,5.53
2023-03-24T11:49:31.906Z,4.53
2023-03-24T11:51:58.747Z,4.05
2023-03-24T11:54:33.783Z,4.43
2023-03-24T11:57:08.041Z,5.50
2023-03-24T11:59:52.200Z,6.57
2023-03-24T12:02:44.453Z,4.63
2023-03-24T12:05:42.065Z,4.43
2023-03-24T12:08:21.923Z,4.82
2023-03-24T12:11:04.512Z,4.40
2023-03-24T12:13:39.060Z,5.13
2023-03-24T12:16:21.434Z,4.88
2023-03-24T12:19:06.948Z,6.88
2023-03-24T12:21:33.987Z,6.18
2023-03-24T12:24:17.354Z,9.07
2023-03-24T12:26:44.425Z,4.38
2023-03-24T12:29:37.550Z,4.82
2023-03-24T12:32:27.226Z,4.90
2023-03-24T12:35:15.242Z,9.25
2023-03-24T12:38:03.834Z,6.50
2023-03-24T12:40:42.992Z,6.88
2023-03-24T12:43:41.185Z,7.45
2023-03-24T12:46:46.676Z,7.57
2023-03-24T12:50:00.242Z,5.00
2023-03-24T12:52:49.053Z,6.97
2023-03-24T12:55:29.212Z,5.80
2023-03-24T12:58:09.178Z,7.78
2023-03-24T13:00:57.914Z,6.47
2023-03-24T13:03:41.367Z,11.23
2023-03-24T13:06:20.917Z,7.82
2023-03-24T13:08:59.115Z,6.47
2023-03-24T13:11:36.232Z,7.45
2023-03-24T13:14:06.937Z,6.57
2023-03-24T13:16:37.944Z,6.55
2023-03-24T13:19:17.023Z,7.03
2023-03-24T13:21:45.526Z,6.03
2023-03-24T13:24:15.400Z,6.00
2023-03-24T13:27:13.673Z,6.90
2023-03-24T13:30:00.117Z,5.90
2023-03-24T13:32:44.922Z,7.72
2023-03-24T13:35:30.057Z,8.60
2023-03-24T13:38:22.184Z,7.10
2023-03-24T13:40:53.145Z,7.55
2023-03-24T13:43:31.288Z,7.97
2023-03-24T13:46:07.731Z,6.00
2023-03-24T13:48:42.240Z,5.95
2023-03-24T13:51:27.533Z,6.43
2023-03-24T13:54:11.759Z,8.32
2023-03-24T13:57:05.675Z,6.55
2023-03-24T14:00:01.961Z,6.35
2023-03-24T14:02:31.692Z,8.15
2023-03-24T14:05:09.738Z,7.28
2023-03-24T14:07:39.524Z,9.18
2023-03-24T14:10:15.950Z,9.10
2023-03-24T14:13:01.785Z,6.22
2023-03-24T14:15:44.170Z,7.65
2023-03-24T14:18:23.014Z,8.95
2023-03-24T14:20:56.537Z,7.57
2023-03-24T14:23:52.521Z,8.32
2023-03-24T14:26:23.309Z,6.93
2023-03-24T14:28:52.469Z,7.55
2023-03-24T14:31:24.609Z,6.22
2023-03-24T14:33:54.470Z,8.90
2023-03-24T14:36:30.562Z,7.07
2023-03-24T14:39:08.933Z,5.45
2023-03-24T14:41:39.208Z,8.50
2023-03-24T14:44:06.521Z,4.78
2023-03-24T14:46:37.893Z,7.18
2023-03-24T14:49:23.169Z,6.50
2023-03-24T14:51:59.087Z,9.60
2023-03-24T14:54:48.025Z,8.50
2023-03-24T14:57:39.096Z,6.47
2023-03-24T15:00:18.922Z,5.38
2023-03-24T15:02:48.537Z,6.18
2023-03-24T15:05:37.088Z,8.75
2023-03-24T15:08:21.793Z,5.38
2023-03-24T15:10:49.196Z,6.65
2023-03-24T15:13:28.918Z,8.40
2023-03-24T15:15:56.158Z,8.48
2023-03-24T15:18:23.603Z,5.43
2023-03-24T15:20:51.285Z,7.22
2023-03-24T15:23:28.292Z,5.78
2023-03-24T15:25:56.358Z,5.55
2023-03-24T15:28:29.030Z,5.97
2023-03-24T15:30:59.435Z,4.25
2023-03-24T15:33:30.764Z,7.63
2023-03-24T15:35:59.630Z,5.72
2023-03-24T15:38:33.543Z,7.78
2023-03-24T15:41:07.869Z,9.40
2023-03-24T15:43:42.106Z,9.40
2023-03-24T15:46:22.660Z,7.82
2023-03-24T15:48:50.243Z,8.77
2023-03-24T15:51:17.056Z,7.00
2023-03-24T15:53:56.251Z,10.80
2023-03-24T15:56:28.978Z,12.35
2023-03-24T15:59:11.806Z,9.50
2023-03-24T16:01:42.608Z,12.43
2023-03-24T16:04:17.629Z,10.15
2023-03-24T16:06:50.134Z,8.13
2023-03-24T16:09:27.328Z,8.32
2023-03-24T16:11:54.388Z,7.10
2023-03-24T16:14:27.878Z,9.30
2023-03-24T16:17:02.998Z,11.98
2023-03-24T16:19:30.633Z,5.60
2023-03-24T16:21:57.876Z,7.82
2023-03-24T16:24:25.152Z,5.80
2023-03-24T16:26:52.014Z,4.88
2023-03-24T16:29:22.297Z,5.70
2023-03-24T16:31:51.368Z,6.15
2023-03-24T16:34:20.697Z,5.85
2023-03-24T16:36:48.785Z,4.82
2023-03-24T16:39:18.899Z,8.55
2023-03-24T16:41:46.362Z,9.18
2023-03-24T16:44:13.564Z,5.85
2023-03-24T16:46:41.101Z,7.93
2023-03-24T16:49:11.109Z,6.80
2023-03-24T16:51:37.909Z,5.32
2023-03-24T16:54:05.610Z,4.40
2023-03-24T16:56:32.440Z,6.55
2023-03-24T16:58:59.565Z,5.43
2023-03-24T17:01:35.913Z,5.28
2023-03-24T17:04:10.324Z,5.05
2023-03-24T17:06:39.733Z,9.10
2023-03-24T17:09:08.439Z,68.03
2023-03-24T17:11:38.384Z,15.35
2023-03-24T17:14:08.336Z,17.40
2023-03-24T17:16:37.070Z,22.08
2023-03-24T17:19:06.169Z,10.15
2023-03-24T17:21:36.667Z,9.80
2023-03-24T17:24:04.643Z,11.65
2023-03-24T17:26:32.192Z,8.70
2023-03-24T17:28:59.306Z,8.23
2023-03-24T17:31:26.221Z,6.93
2023-03-24T17:33:53.192Z,7.57
2023-03-24T17:36:19.932Z,13.50
2023-03-24T17:38:49.869Z,13.57
2023-03-24T17:41:16.692Z,8.27
2023-03-24T17:43:46.202Z,8.68
2023-03-24T17:46:13.234Z,8.93
2023-03-24T17:48:40.419Z,8.27
2023-03-24T17:51:07.252Z,5.95
2023-03-24T17:53:34.628Z,6.45
2023-03-24T17:56:05.684Z,9.48
2023-03-24T17:58:34.709Z,7.60
2023-03-24T18:01:07.773Z,7.37
2023-03-24T18:03:38.159Z,7.70
2023-03-24T18:06:10.260Z,6.03
2023-03-24T18:08:38.304Z,7.75
2023-03-24T18:11:07.175Z,6.47
2023-03-24T18:13:34.528Z,8.10
2023-03-24T18:16:13.344Z,5.97
2023-03-24T18:18:45.821Z,9.07
2023-03-24T18:21:12.852Z,12.18
2023-03-24T18:23:39.914Z,10.13
2023-03-24T18:26:08.215Z,10.43
2023-03-24T18:28:37.273Z,13.30
2023-03-24T18:31:12.798Z,10.37
2023-03-24T18:33:42.713Z,8.87
2023-03-24T18:36:10.591Z,14.00
2023-03-24T18:38:37.911Z,13.40
2023-03-24T18:41:06.997Z,9.00
2023-03-24T18:43:37.432Z,9.77
2023-03-24T18:46:05.686Z,8.77
2023-03-24T18:48:32.722Z,9.43
2023-03-24T18:50:59.397Z,7.07
2023-03-24T18:53:26.408Z,6.60
2023-03-24T18:55:53.122Z,11.37
2023-03-24T18:58:20.312Z,4.57
2023-03-24T19:00:57.608Z,7.03
2023-03-24T19:03:26.314Z,5.57
2023-03-24T19:05:53.177Z,4.50
2023-03-24T19:08:21.869Z,5.07
2023-03-24T19:10:48.985Z,5.67
2023-03-24T19:13:16.970Z,5.07
2023-03-24T19:15:48.255Z,7.73
2023-03-24T19:18:15.698Z,9.80
2023-03-24T19:20:42.749Z,7.23
2023-03-24T19:23:09.765Z,6.83
2023-03-24T19:25:36.668Z,6.77
2023-03-24T19:28:03.822Z,7.53
2023-03-24T19:30:30.892Z,6.07
2023-03-24T19:32:58.027Z,6.67
2023-03-24T19:35:25.004Z,10.40
2023-03-24T19:37:53.398Z,9.60
2023-03-24T19:40:20.176Z,7.27
2023-03-24T19:42:47.252Z,7.97
2023-03-24T19:45:16.427Z,7.17
2023-03-24T19:47:45.835Z,6.80
2023-03-24T19:50:14.850Z,8.97
2023-03-24T19:52:43.134Z,6.37
2023-03-24T19:55:10.834Z,8.87
2023-03-24T19:57:38.290Z,6.93
2023-03-24T20:00:09.217Z,6.20
2023-03-24T20:02:37.497Z,9.60
2023-03-24T20:05:05.439Z,7.97
2023-03-24T20:07:32.454Z,8.17
2023-03-24T20:09:59.891Z,8.63
2023-03-24T20:12:27.838Z,9.00
2023-03-24T20:14:56.378Z,6.37
2023-03-24T20:17:29.414Z,9.93
2023-03-24T20:19:56.751Z,8.73
2023-03-24T20:22:23.784Z,7.20
2023-03-24T20:24:50.739Z,8.97
2023-03-24T20:27:18.833Z,6.83
2023-03-24T20:29:46.233Z,5.87
2023-03-24T20:32:13.699Z,6.83
2023-03-24T20:34:40.745Z,10.37
2023-03-24T20:37:08.150Z,10.10
2023-03-24T20:39:35.309Z,8.33
2023-03-24T20:42:02.426Z,9.03
2023-03-24T20:44:29.205Z,5.93
2023-03-24T20:47:00.732Z,9.17
2023-03-24T20:49:27.696Z,7.33
2023-03-24T20:51:54.847Z,8.57
2023-03-24T20:54:21.678Z,10.40
2023-03-24T20:56:55.251Z,10.50
2023-03-24T20:59:22.339Z,8.40
2023-03-24T21:01:49.382Z,8.50
2023-03-24T21:04:17.479Z,9.67
2023-03-24T21:06:44.985Z,7.93
2023-03-24T21:09:12.103Z,7.80
2023-03-24T21:11:39.259Z,9.30
2023-03-24T21:14:06.066Z,11.90
2023-03-24T21:16:37.639Z,10.07
2023-03-24T21:19:04.989Z,11.43
2023-03-24T21:21:32.275Z,8.23
2023-03-24T21:24:00.354Z,9.33
2023-03-24T21:26:27.710Z,9.43
2023-03-24T21:28:54.451Z,10.73
2023-03-24T21:31:22.905Z,8.83
2023-03-24T21:33:50.908Z,14.23
2023-03-24T21:36:18.865Z,10.30
2023-03-24T21:38:45.796Z,8.87
2023-03-24T21:41:12.939Z,10.37
2023-03-24T21:43:41.003Z,11.57
2023-03-24T21:46:14.937Z,9.03
2023-03-24T21:48:51.299Z,8.87
2023-03-24T21:51:26.405Z,12.43
2023-03-24T21:53:59.212Z,8.63
2023-03-24T21:56:26.347Z,9.33
2023-03-24T21:58:54.556Z,10.20
2023-03-24T22:01:22.607Z,9.87
2023-03-24T22:03:50.838Z,9.37
2023-03-24T22:06:18.014Z,9.57
2023-03-24T22:08:48.739Z,8.97
2023-03-24T22:11:18.477Z,9.37
2023-03-24T22:13:46.428Z,10.83
2023-03-24T22:16:14.070Z,11.70
2023-03-24T22:18:41.643Z,8.37
2023-03-24T22:21:10.554Z,12.83
2023-03-24T22:23:39.690Z,10.50
2023-03-24T22:26:10.535Z,9.43
2023-03-24T22:28:37.967Z,10.20
2023-03-24T22:31:08.394Z,11.73
2023-03-24T22:33:36.179Z,11.17
2023-03-24T22:36:04.718Z,11.33
2023-03-24T22:38:32.514Z,10.13
2023-03-24T22:41:01.905Z,12.40
2023-03-24T22:43:29.452Z,11.30
2023-03-24T22:45:56.698Z,14.70
2023-03-24T22:48:23.803Z,11.47
2023-03-24T22:50:51.391Z,14.40
2023-03-24T22:53:18.292Z,11.87
2023-03-24T22:55:45.570Z,15.23
2023-03-24T22:58:13.792Z,11.90
2023-03-24T23:00:42.092Z,12.10
2023-03-24T23:03:09.801Z,13.20
2023-03-24T23:05:41.360Z,11.33
2023-03-24T23:08:09.554Z,10.90
2023-03-24T23:10:38.793Z,12.13
2023-03-24T23:13:05.651Z,11.70
2023-03-24T23:15:32.991Z,12.63
2023-03-24T23:18:00.233Z,11.67
2023-03-24T23:20:28.320Z,14.13
2023-03-24T23:22:56.304Z,14.73
2023-03-24T23:25:23.756Z,14.57
2023-03-24T23:27:50.785Z,13.57
2023-03-24T23:30:18.109Z,13.07
2023-03-24T23:32:46.777Z,13.20
2023-03-24T23:35:14.754Z,16.43
2023-03-24T23:37:41.667Z,13.47
2023-03-24T23:40:15.636Z,12.63
2023-03-24T23:42:47.658Z,11.83
2023-03-24T23:45:18.379Z,13.73
2023-03-24T23:47:50.893Z,13.20
2023-03-24T23:50:19.649Z,15.73
2023-03-24T23:52:46.992Z,15.00
2023-03-24T23:55:17.705Z,20.07
2023-03-24T23:57:45.506Z,31.33
